Pagina principale
METAR-TAF:

METAR-TAF

Aeroporti :

Lecce, Italia

Aeroporto di Lecce-San Cataldo

latitudine: 40-14N, longitudine: 018-09E, altezza: 48 m

Osservazione

Il bollettino è stato emesso 45 minuti fa, alle 08:55 UTC
Vento 5 kt da nord
Temperature 25°C
Umidità 36%
Pressione 1017 hPa
Visibilità 10 km o più
Nubi sparse ad un'altezza di 3000 ft

METAR: LIBN 290855Z 35005KT 9999 SCT030 25/09 Q1017 RMK SCT VIS MIN 9999 WIND THR14 35003KT WIND THR32 VRB02KT BLU

Ora: 11:40 (09:40 UTC)

Previsione

Il bollettino è stato emesso 1 ora e 40 minuti fa, alle 08:00 UTC
Previsione valida dal 29 alle 09 UTC al 29 alle 18 UTC
Vento 5 kt da direzioni variabili
Visibilità 10 km o più
nessuna nube inferiore a 1500 m e nessun cumulonembo
Temporaneamente
dal 29 alle 11 UTC al 29 alle 15 UTC
Poco nuvoloso ad un'altezza di 2000 ft, Cumulonembo.
Nubi sparse ad un'altezza di 3000 ft

TAF: LIBN 290800Z 2909/2918 VRB05KT CAVOK TEMPO 2911/2915 FEW020CB SCT030

Osservazioni e previsioni meteorologiche di più di 4000 aeroporti (messaggi METAR e TAF).

Le stazioni disponibili sono rappresentate dai dischi gialli e rossi sulla carta.

Puntare il mouse per vedere il nome della stazione.

Clicca sopra per visualizzare le osservazioni e previsioni meteorologiche.

Per cambiare la mappa : fare clic sui pulsanti verdi con una croce nera per ingrandire, il pulsante verde con un trattino per diminuire, o sulla freccia verde per le mappe adiacenti.


METAR-TAF: